Time;durP1;ratioP1;P1;durP2;ratioP2;P2;SDS_P1;SDS_P2;PMS_P1;PMS_P2;Temp;Humidity;BMP_temperature;BMP_pressure;BME280_temperature;BME280_humidity;BME280_pressure;Samples;Min_cycle;Max_cycle;Signal;HPM_P1;HPM_P2
2022/09/09 00:01:49;;;;;;;0.80;0.80;;;18.90;67.90;;;;;;5029241;28;20239;-49
2022/09/09 00:04:27;;;;;;;1.00;0.90;;;18.90;68.00;;;;;;5011363;28;20614;-55
2022/09/09 00:07:03;;;;;;;1.00;0.90;;;18.90;68.00;;;;;;5009741;28;20721;-52
2022/09/09 00:09:35;;;;;;;1.08;0.98;;;18.90;68.10;;;;;;5011489;28;20206;-51
2022/09/09 00:12:07;;;;;;;1.23;1.10;;;18.90;68.10;;;;;;5013619;28;20195;-54
2022/09/09 00:14:43;;;;;;;3.45;1.42;;;18.90;68.20;;;;;;5011072;28;20267;-56
2022/09/09 00:17:18;;;;;;;3.88;1.40;;;18.90;68.30;;;;;;5011785;28;20187;-56
2022/09/09 00:19:51;;;;;;;1.33;1.23;;;18.80;68.60;;;;;;5010916;28;20690;-55
2022/09/09 00:22:21;;;;;;;1.83;1.23;;;18.80;68.30;;;;;;5012368;28;20217;-56
2022/09/09 00:24:53;;;;;;;0.95;0.95;;;18.80;68.30;;;;;;5011513;28;20230;-54
2022/09/09 00:27:32;;;;;;;2.35;1.10;;;18.80;68.40;;;;;;5000939;28;20302;-57
2022/09/09 00:30:13;;;;;;;1.40;1.10;;;18.80;68.40;;;;;;5014822;28;20195;-56
2022/09/09 00:32:41;;;;;;;1.23;1.13;;;18.70;68.30;;;;;;5010413;28;20674;-53
2022/09/09 00:35:18;;;;;;;1.90;1.55;;;18.70;68.40;;;;;;5012807;28;20274;-53
2022/09/09 00:37:49;;;;;;;1.52;1.10;;;18.70;68.40;;;;;;5008854;28;20187;-54
2022/09/09 00:40:26;;;;;;;1.80;1.38;;;18.70;68.40;;;;;;5012738;28;20623;-55
2022/09/09 00:43:15;;;;;;;3.10;1.30;;;18.60;68.40;;;;;;5006960;28;20221;-56
2022/09/09 00:46:25;;;;;;;1.70;1.20;;;18.60;68.50;;;;;;5021468;28;20223;-55
2022/09/09 00:49:00;;;;;;;1.40;1.30;;;18.50;68.50;;;;;;4999724;28;20210;-54
2022/09/09 00:51:39;;;;;;;1.48;1.38;;;18.50;68.60;;;;;;5009803;28;20679;-55
2022/09/09 00:54:24;;;;;;;2.97;1.20;;;18.50;68.70;;;;;;5008738;28;20714;-55
2022/09/09 00:56:58;;;;;;;1.20;1.10;;;18.50;68.70;;;;;;5007362;28;20222;-54
2022/09/09 00:59:35;;;;;;;1.30;1.10;;;18.40;68.70;;;;;;5011738;28;20274;-53
2022/09/09 01:02:09;;;;;;;1.20;1.10;;;18.40;68.70;;;;;;5010751;28;20234;-54
2022/09/09 01:04:37;;;;;;;1.30;1.17;;;18.40;68.70;;;;;;5033966;28;20190;-54
2022/09/09 01:07:12;;;;;;;2.35;1.17;;;18.50;68.80;;;;;;5022748;28;20568;-54
2022/09/09 01:09:46;;;;;;;1.40;1.30;;;18.40;68.70;;;;;;5028850;28;20222;-50
2022/09/09 01:12:17;;;;;;;1.17;1.02;;;18.40;68.70;;;;;;5014612;28;20641;-50
2022/09/09 01:14:51;;;;;;;2.08;1.10;;;18.40;68.80;;;;;;5011557;28;20213;-55
2022/09/09 01:17:23;;;;;;;1.35;1.20;;;18.40;68.90;;;;;;5025584;28;20206;-51
2022/09/09 01:20:04;;;;;;;2.40;1.35;;;18.40;68.90;;;;;;5028135;28;20745;-54
2022/09/09 01:22:41;;;;;;;1.50;1.00;;;18.30;68.90;;;;;;5021532;28;20210;-54
2022/09/09 01:25:29;;;;;;;1.13;1.10;;;18.30;69.00;;;;;;5029637;28;20621;-51
2022/09/09 01:28:23;;;;;;;1.35;1.08;;;18.30;69.10;;;;;;5034475;28;20210;-54
2022/09/09 01:30:52;;;;;;;1.08;1.00;;;18.30;69.10;;;;;;5032354;28;20202;-55
2022/09/09 01:33:22;;;;;;;1.73;1.15;;;18.30;69.10;;;;;;5011416;28;20213;-54
2022/09/09 01:35:54;;;;;;;3.55;1.35;;;18.30;69.30;;;;;;5033184;28;20268;-54
2022/09/09 01:38:25;;;;;;;1.10;1.02;;;18.20;69.20;;;;;;5012960;28;20687;-56
2022/09/09 01:40:54;;;;;;;2.58;0.95;;;18.20;69.50;;;;;;5011908;28;20955;-56
2022/09/09 01:43:29;;;;;;;1.30;1.20;;;18.20;69.60;;;;;;5010698;28;20221;-57
2022/09/09 01:45:59;;;;;;;1.20;1.10;;;18.20;69.60;;;;;;5042445;28;20217;-57
2022/09/09 01:48:28;;;;;;;3.25;1.20;;;18.20;69.60;;;;;;5039496;28;20214;-56
2022/09/09 01:51:09;;;;;;;1.70;0.95;;;18.20;69.60;;;;;;5037498;28;20395;-57
2022/09/09 01:53:36;;;;;;;1.23;1.13;;;18.30;69.60;;;;;;5010142;28;20218;-53
2022/09/09 01:56:10;;;;;;;1.67;1.35;;;18.30;69.60;;;;;;5045032;28;20198;-53
2022/09/09 01:58:52;;;;;;;2.05;1.40;;;18.30;69.60;;;;;;5029067;28;20205;-56
2022/09/09 02:01:43;;;;;;;1.48;1.10;;;18.30;69.60;;;;;;5041261;28;20307;-56
2022/09/09 02:04:26;;;;;;;3.35;1.40;;;18.30;69.60;;;;;;5010684;28;20233;-55
2022/09/09 02:06:57;;;;;;;1.10;0.90;;;18.30;69.70;;;;;;5029054;28;20205;-55
2022/09/09 02:09:31;;;;;;;2.45;1.02;;;18.30;69.60;;;;;;5008824;28;20209;-55
2022/09/09 02:12:04;;;;;;;4.78;1.20;;;18.30;69.70;;;;;;5012171;28;20206;-55
2022/09/09 02:14:45;;;;;;;1.25;1.15;;;18.30;69.80;;;;;;5010910;28;20205;-54
2022/09/09 02:17:14;;;;;;;1.88;1.05;;;18.20;69.70;;;;;;5026901;28;20200;-53
2022/09/09 02:20:07;;;;;;;1.20;1.10;;;18.20;69.70;;;;;;5011573;28;20210;-55
2022/09/09 02:22:57;;;;;;;2.28;1.23;;;18.20;69.70;;;;;;5011672;28;20234;-54
2022/09/09 02:25:29;;;;;;;1.10;1.10;;;18.20;69.80;;;;;;5029096;28;20236;-54
2022/09/09 02:28:02;;;;;;;3.20;1.30;;;18.10;69.80;;;;;;5013972;28;20250;-52
2022/09/09 02:30:34;;;;;;;2.58;1.20;;;18.10;70.00;;;;;;5033581;28;20255;-52
2022/09/09 02:33:06;;;;;;;2.47;1.00;;;18.00;70.00;;;;;;5029647;28;20654;-56
2022/09/09 02:35:46;;;;;;;1.10;1.10;;;18.00;70.10;;;;;;5014616;28;20198;-55
2022/09/09 02:38:17;;;;;;;2.70;1.67;;;18.00;70.10;;;;;;5030988;28;20279;-55
2022/09/09 02:40:58;;;;;;;3.15;1.58;;;18.10;70.20;;;;;;5014472;28;20209;-55
2022/09/09 02:43:25;;;;;;;3.97;1.65;;;18.10;70.20;;;;;;5033286;28;20677;-56
2022/09/09 02:46:03;;;;;;;3.55;1.70;;;18.10;70.20;;;;;;5016783;28;20198;-56
2022/09/09 02:48:41;;;;;;;2.22;1.60;;;18.00;70.10;;;;;;5013457;28;20201;-56
2022/09/09 02:51:16;;;;;;;1.30;1.20;;;18.00;70.30;;;;;;5012370;28;20237;-57
2022/09/09 02:53:51;;;;;;;2.40;1.27;;;17.90;70.40;;;;;;5028148;28;20668;-55
2022/09/09 02:56:22;;;;;;;2.38;1.50;;;17.90;70.40;;;;;;5030705;28;20253;-54
2022/09/09 02:58:51;;;;;;;1.30;1.20;;;17.90;70.40;;;;;;5032381;28;20197;-50
2022/09/09 03:01:20;;;;;;;1.35;1.10;;;17.90;70.40;;;;;;5028645;28;20224;-55
2022/09/09 03:03:47;;;;;;;4.60;1.23;;;18.00;70.60;;;;;;5011537;28;20231;-56
2022/09/09 03:06:17;;;;;;;3.17;1.30;;;18.00;70.70;;;;;;5013676;28;20323;-56
2022/09/09 03:08:49;;;;;;;2.25;1.40;;;17.90;71.30;;;;;;5018504;28;20212;-52
2022/09/09 03:11:19;;;;;;;1.80;1.27;;;17.90;72.10;;;;;;5032427;28;20666;-54
2022/09/09 03:13:46;;;;;;;4.03;1.43;;;17.80;73.10;;;;;;5012821;28;20232;-55
2022/09/09 03:16:14;;;;;;;1.40;1.30;;;17.70;74.30;;;;;;5016199;28;20288;-55
2022/09/09 03:18:47;;;;;;;1.75;1.38;;;17.60;75.90;;;;;;5046312;28;20192;-55
2022/09/09 03:21:14;;;;;;;1.70;1.60;;;17.60;78.60;;;;;;5034117;28;20219;-54
2022/09/09 03:23:42;;;;;;;4.53;1.77;;;17.40;80.90;;;;;;5021681;28;20664;-52
2022/09/09 03:26:10;;;;;;;1.65;1.55;;;17.30;82.70;;;;;;5021069;28;20204;-51
2022/09/09 03:28:44;;;;;;;9.37;2.20;;;17.20;84.40;;;;;;5013150;28;20200;-52
2022/09/09 03:31:14;;;;;;;4.77;1.97;;;17.10;86.60;;;;;;5039423;28;20218;-54
2022/09/09 03:33:42;;;;;;;3.70;2.03;;;17.00;88.10;;;;;;5035364;28;20277;-54
2022/09/09 03:36:14;;;;;;;3.70;2.10;;;16.90;90.10;;;;;;5022306;28;20289;-51
2022/09/09 03:38:41;;;;;;;5.20;2.40;;;16.80;90.90;;;;;;5038057;28;20625;-51
2022/09/09 03:41:09;;;;;;;2.07;1.60;;;16.70;91.60;;;;;;5018224;28;20324;-50
2022/09/09 03:43:37;;;;;;;5.17;2.30;;;16.60;91.70;;;;;;5019613;28;20245;-55
2022/09/09 03:46:05;;;;;;;2.53;2.20;;;16.70;92.40;;;;;;5047785;28;20199;-55
2022/09/09 03:48:32;;;;;;;2.00;1.40;;;16.60;92.70;;;;;;5026783;28;20293;-54
2022/09/09 03:51:01;;;;;;;3.67;1.60;;;16.70;92.60;;;;;;5040645;28;20628;-55
2022/09/09 03:53:31;;;;;;;3.57;1.77;;;16.70;92.80;;;;;;5016029;28;20661;-51
2022/09/09 03:56:00;;;;;;;4.33;2.03;;;16.80;93.10;;;;;;5025144;28;20609;-55
2022/09/09 03:58:29;;;;;;;3.00;2.00;;;16.80;93.40;;;;;;5040339;28;20238;-49
2022/09/09 04:01:03;;;;;;;4.67;2.00;;;16.80;93.70;;;;;;5048296;28;20209;-49
2022/09/09 04:03:31;;;;;;;4.20;2.33;;;16.80;93.90;;;;;;5031512;28;20243;-49
2022/09/09 04:06:01;;;;;;;3.40;1.90;;;16.90;94.20;;;;;;5031051;28;20200;-52
2022/09/09 04:08:32;;;;;;;2.33;2.00;;;16.80;94.40;;;;;;5039440;28;20206;-53
2022/09/09 04:11:05;;;;;;;3.67;2.40;;;16.80;94.80;;;;;;5028311;28;20206;-52
2022/09/09 04:13:33;;;;;;;4.53;2.00;;;16.80;95.00;;;;;;5040465;28;20345;-54
2022/09/09 04:16:04;;;;;;;1.93;1.73;;;16.90;95.30;;;;;;5013329;28;20261;-51
2022/09/09 04:18:32;;;;;;;2.53;1.93;;;16.90;95.30;;;;;;5034421;28;20209;-52
2022/09/09 04:21:01;;;;;;;4.63;2.23;;;16.90;95.50;;;;;;5017301;28;20877;-53
2022/09/09 04:23:33;;;;;;;2.43;1.90;;;16.90;95.80;;;;;;5015677;28;20208;-47
2022/09/09 04:26:00;;;;;;;5.27;2.10;;;16.90;95.80;;;;;;5043388;28;20205;-53
2022/09/09 04:28:31;;;;;;;4.27;2.37;;;16.90;96.00;;;;;;5015640;28;20742;-52
2022/09/09 04:31:05;;;;;;;3.47;2.00;;;16.90;96.30;;;;;;5016035;28;20615;-52
2022/09/09 04:33:33;;;;;;;5.20;1.97;;;16.90;96.40;;;;;;5014821;28;20188;-52
2022/09/09 04:36:00;;;;;;;6.73;2.50;;;16.90;96.60;;;;;;5036788;28;20196;-49
2022/09/09 04:38:27;;;;;;;4.33;1.70;;;16.90;96.70;;;;;;5019906;28;20204;-51
2022/09/09 04:40:57;;;;;;;4.33;2.10;;;16.90;96.70;;;;;;5010445;28;20334;-52
2022/09/09 04:43:26;;;;;;;2.90;2.13;;;16.80;96.80;;;;;;5027233;28;20785;-52
2022/09/09 04:45:54;;;;;;;1.90;1.70;;;16.80;97.00;;;;;;5019112;28;20221;-49
2022/09/09 04:48:25;;;;;;;3.57;2.23;;;16.80;97.10;;;;;;5002262;28;20259;-51
2022/09/09 04:50:56;;;;;;;2.30;1.80;;;16.80;97.10;;;;;;5015911;28;20754;-56
2022/09/09 04:53:25;;;;;;;2.63;1.77;;;16.90;97.20;;;;;;5005736;28;20290;-55
2022/09/09 04:55:53;;;;;;;2.63;1.87;;;16.90;97.30;;;;;;5011829;28;20250;-56
2022/09/09 04:58:23;;;;;;;8.07;1.90;;;16.90;97.30;;;;;;5014305;28;20195;-53
2022/09/09 05:00:51;;;;;;;3.27;2.00;;;16.90;97.40;;;;;;5012496;28;20309;-56
2022/09/09 05:03:20;;;;;;;3.83;2.37;;;16.90;97.50;;;;;;5011381;28;20250;-55
2022/09/09 05:05:47;;;;;;;3.10;2.23;;;16.90;97.60;;;;;;5012263;28;20192;-56
2022/09/09 05:08:14;;;;;;;3.20;2.43;;;16.90;97.70;;;;;;5027384;28;20215;-56
2022/09/09 05:10:42;;;;;;;5.03;2.33;;;16.90;97.70;;;;;;5027292;28;20253;-53
2022/09/09 05:13:09;;;;;;;4.37;2.47;;;16.90;98.10;;;;;;5013028;28;20710;-57
2022/09/09 05:15:38;;;;;;;2.60;1.90;;;16.90;97.80;;;;;;5012763;28;20681;-56
2022/09/09 05:18:05;;;;;;;2.63;1.93;;;16.90;97.80;;;;;;5019539;28;20198;-56
2022/09/09 05:20:33;;;;;;;3.20;2.10;;;17.00;97.90;;;;;;5029282;28;20199;-56
2022/09/09 05:23:01;;;;;;;2.10;1.90;;;16.90;98.10;;;;;;5028996;28;20286;-55
2022/09/09 05:25:31;;;;;;;3.07;2.07;;;16.90;98.20;;;;;;5026516;28;20233;-56
2022/09/09 05:28:00;;;;;;;4.97;2.20;;;16.80;98.30;;;;;;5011802;28;20209;-56
2022/09/09 05:30:27;;;;;;;2.80;2.00;;;16.80;98.50;;;;;;5011867;28;20225;-56
2022/09/09 05:32:58;;;;;;;2.73;2.00;;;16.70;98.50;;;;;;5010574;28;20191;-56
2022/09/09 05:35:25;;;;;;;3.33;1.80;;;16.70;98.60;;;;;;5037823;28;20649;-54
2022/09/09 05:37:52;;;;;;;2.60;2.03;;;16.70;98.70;;;;;;5028015;28;20200;-53
2022/09/09 05:40:21;;;;;;;4.33;1.90;;;16.70;98.80;;;;;;5017129;28;20207;-54
2022/09/09 05:42:48;;;;;;;4.50;1.60;;;16.70;98.60;;;;;;5028769;28;20302;-53
2022/09/09 05:45:15;;;;;;;1.80;1.70;;;16.60;98.60;;;;;;5039470;28;20198;-54
2022/09/09 05:47:42;;;;;;;1.60;1.50;;;16.50;98.60;;;;;;5036392;28;20211;-52
2022/09/09 05:50:14;;;;;;;3.10;1.80;;;16.40;98.60;;;;;;5017176;28;20194;-55
2022/09/09 05:52:41;;;;;;;2.37;1.67;;;16.40;98.70;;;;;;5034092;28;20272;-49
2022/09/09 05:55:09;;;;;;;1.97;1.30;;;16.40;98.80;;;;;;5039730;28;20265;-55
2022/09/09 05:57:36;;;;;;;1.97;1.67;;;16.40;98.80;;;;;;5010287;28;20253;-56
2022/09/09 06:00:04;;;;;;;1.97;1.20;;;16.40;98.90;;;;;;5012141;28;20203;-54
2022/09/09 06:02:41;;;;;;;1.87;1.50;;;16.40;98.90;;;;;;5039002;28;20247;-55
2022/09/09 06:05:11;;;;;;;3.33;1.80;;;16.40;99.00;;;;;;5014057;28;20207;-57
2022/09/09 06:07:41;;;;;;;2.10;1.70;;;16.30;99.00;;;;;;5009639;28;20653;-50
2022/09/09 06:10:09;;;;;;;1.87;1.60;;;16.30;99.20;;;;;;5009309;28;20216;-52
2022/09/09 06:12:36;;;;;;;3.17;1.87;;;16.20;99.30;;;;;;5012686;28;20345;-56
2022/09/09 06:15:04;;;;;;;3.00;1.40;;;16.20;99.40;;;;;;5042470;28;20195;-57
2022/09/09 06:17:31;;;;;;;2.40;1.60;;;16.20;99.40;;;;;;5031573;28;20286;-56
2022/09/09 06:19:59;;;;;;;2.20;1.80;;;16.20;99.40;;;;;;5042564;28;20198;-56
2022/09/09 06:22:26;;;;;;;1.50;1.40;;;16.20;99.30;;;;;;5042153;28;20681;-55
2022/09/09 06:24:54;;;;;;;2.70;1.17;;;16.10;99.20;;;;;;5038125;28;20294;-56
2022/09/09 06:27:21;;;;;;;1.30;1.17;;;16.10;99.10;;;;;;5005256;28;20303;-56
2022/09/09 06:29:48;;;;;;;1.93;1.50;;;16.10;99.10;;;;;;5012695;28;20255;-52
2022/09/09 06:32:17;;;;;;;1.87;1.50;;;16.00;98.90;;;;;;5022476;28;20207;-54
2022/09/09 06:34:45;;;;;;;2.37;1.57;;;16.00;98.90;;;;;;5010560;28;20209;-57
2022/09/09 06:37:12;;;;;;;1.50;1.40;;;16.00;98.90;;;;;;5017397;28;20199;-53
2022/09/09 06:39:45;;;;;;;2.93;1.40;;;16.00;99.00;;;;;;5038718;28;20191;-55
2022/09/09 06:42:14;;;;;;;2.73;1.10;;;16.00;99.00;;;;;;5035753;28;20256;-54
2022/09/09 06:44:47;;;;;;;1.30;1.20;;;16.00;99.00;;;;;;5035722;28;20671;-56
2022/09/09 06:47:33;;;;;;;1.10;1.10;;;16.00;99.00;;;;;;5044256;28;20197;-54
2022/09/09 06:50:00;;;;;;;1.40;1.30;;;16.00;98.90;;;;;;5015398;28;20206;-55
2022/09/09 06:52:28;;;;;;;1.10;1.10;;;16.00;98.90;;;;;;5042187;28;20186;-54
2022/09/09 06:54:58;;;;;;;1.30;1.20;;;16.10;98.90;;;;;;5036994;28;20293;-56
2022/09/09 06:57:27;;;;;;;1.63;1.30;;;16.10;98.90;;;;;;5018439;28;20198;-55
2022/09/09 06:59:54;;;;;;;2.90;1.00;;;16.10;98.90;;;;;;5011704;28;20228;-54
2022/09/09 07:02:21;;;;;;;2.13;1.23;;;16.10;98.80;;;;;;5026180;28;20246;-54
2022/09/09 07:04:51;;;;;;;2.37;1.00;;;16.10;98.80;;;;;;5010225;28;20277;-55
2022/09/09 07:07:19;;;;;;;1.20;1.10;;;16.10;98.70;;;;;;5011302;28;20561;-52
2022/09/09 07:09:46;;;;;;;3.07;1.80;;;16.10;98.70;;;;;;5030549;28;20245;-55
2022/09/09 07:12:14;;;;;;;1.97;1.30;;;16.00;98.70;;;;;;5013170;28;20226;-52
2022/09/09 07:14:50;;;;;;;1.00;1.00;;;16.00;98.80;;;;;;5014745;28;20194;-50
2022/09/09 07:17:17;;;;;;;1.30;1.20;;;16.00;98.90;;;;;;5032931;28;20202;-54
2022/09/09 07:19:44;;;;;;;2.23;1.10;;;16.00;99.00;;;;;;5033047;28;20203;-54
2022/09/09 07:22:11;;;;;;;1.83;1.30;;;16.00;99.00;;;;;;5028584;28;20198;-51
2022/09/09 07:24:39;;;;;;;2.93;1.33;;;16.00;99.00;;;;;;5027394;28;20207;-53
2022/09/09 07:27:07;;;;;;;1.43;1.20;;;16.00;99.10;;;;;;5031751;28;20237;-54
2022/09/09 07:29:35;;;;;;;0.97;0.90;;;15.90;99.10;;;;;;5015113;28;20238;-55
2022/09/09 07:32:05;;;;;;;7.87;1.80;;;15.90;99.20;;;;;;5013339;28;20199;-55
2022/09/09 07:34:37;;;;;;;4.43;1.40;;;15.90;99.30;;;;;;5015563;28;20194;-56
2022/09/09 07:37:05;;;;;;;1.70;1.60;;;15.90;99.30;;;;;;5031372;28;20205;-55
2022/09/09 07:39:33;;;;;;;2.03;1.33;;;15.90;99.30;;;;;;5029829;28;20202;-56
2022/09/09 07:42:00;;;;;;;1.60;1.50;;;15.90;99.40;;;;;;5013303;28;20206;-53
2022/09/09 07:44:28;;;;;;;1.63;1.53;;;15.80;99.40;;;;;;5014543;28;20292;-56
2022/09/09 07:47:06;;;;;;;3.20;1.80;;;15.80;99.50;;;;;;5012142;28;20723;-56
2022/09/09 07:49:41;;;;;;;1.30;1.20;;;15.80;99.60;;;;;;5029981;28;20271;-54
2022/09/09 07:52:10;;;;;;;2.00;1.70;;;15.80;99.80;;;;;;5014683;28;20209;-53
2022/09/09 07:54:39;;;;;;;1.50;1.40;;;15.70;99.70;;;;;;5012206;28;20202;-57
2022/09/09 07:57:07;;;;;;;1.87;1.77;;;15.70;99.90;;;;;;5032393;28;20248;-56
2022/09/09 07:59:36;;;;;;;2.43;1.90;;;15.70;99.90;;;;;;5012546;28;20210;-55
2022/09/09 08:02:06;;;;;;;2.00;1.70;;;15.70;99.90;;;;;;5011693;28;20206;-55
2022/09/09 08:04:35;;;;;;;2.43;1.80;;;15.70;99.90;;;;;;5032243;28;20306;-56
2022/09/09 08:07:04;;;;;;;2.60;1.80;;;15.70;99.90;;;;;;5011954;28;20250;-56
2022/09/09 08:09:35;;;;;;;2.47;1.60;;;15.60;99.90;;;;;;5029623;28;20661;-56
2022/09/09 08:12:12;;;;;;;2.67;1.50;;;15.60;99.90;;;;;;5011892;28;20201;-56
2022/09/09 08:14:40;;;;;;;2.47;1.67;;;15.60;99.90;;;;;;5022440;28;20205;-56
2022/09/09 08:17:09;;;;;;;1.70;1.57;;;15.60;99.90;;;;;;5031288;28;20191;-56
2022/09/09 08:19:36;;;;;;;3.30;1.80;;;15.60;99.90;;;;;;5011361;28;20190;-57
2022/09/09 08:22:06;;;;;;;2.47;1.30;;;15.60;99.90;;;;;;5040975;28;20202;-55
2022/09/09 08:24:35;;;;;;;1.60;1.50;;;15.60;99.90;;;;;;5030523;28;20225;-56
2022/09/09 08:27:02;;;;;;;1.43;1.33;;;15.60;99.90;;;;;;5012051;28;20289;-56
2022/09/09 08:29:30;;;;;;;1.60;1.50;;;15.70;99.90;;;;;;5015513;28;20229;-57
2022/09/09 08:31:59;;;;;;;1.60;1.50;;;15.70;99.90;;;;;;5021422;28;20579;-55
2022/09/09 08:34:30;;;;;;;2.03;1.60;;;15.70;99.90;;;;;;5033552;28;20662;-55
2022/09/09 08:36:59;;;;;;;1.70;1.60;;;15.70;99.90;;;;;;5011456;28;20581;-56
2022/09/09 08:39:33;;;;;;;3.23;2.10;;;15.60;99.90;;;;;;5007917;28;20243;-55
2022/09/09 08:42:24;;;;;;;2.50;2.10;;;15.60;99.90;;;;;;5031430;28;20273;-54
2022/09/09 08:45:15;;;;;;;3.63;2.10;;;15.60;99.90;;;;;;5013145;28;20211;-53
2022/09/09 08:47:52;;;;;;;2.13;1.70;;;15.60;99.90;;;;;;5007736;28;20289;-57
2022/09/09 08:50:27;;;;;;;2.50;1.53;;;15.60;99.90;;;;;;5011625;28;20198;-56
2022/09/09 08:53:05;;;;;;;3.33;2.00;;;15.50;99.90;;;;;;5010216;28;20197;-56
2022/09/09 08:55:42;;;;;;;2.10;1.90;;;15.50;99.90;;;;;;5044944;28;20675;-56
2022/09/09 08:58:15;;;;;;;3.17;1.80;;;15.40;99.90;;;;;;5025107;28;20483;-56
2022/09/09 09:01:00;;;;;;;2.53;2.30;;;15.40;99.90;;;;;;5033567;28;20203;-57
2022/09/09 09:03:36;;;;;;;1.70;1.60;;;15.40;99.90;;;;;;5009789;28;20244;-56
2022/09/09 09:06:17;;;;;;;1.93;1.80;;;15.40;99.90;;;;;;5025928;28;20228;-53
2022/09/09 09:08:50;;;;;;;2.00;1.70;;;15.50;99.90;;;;;;5025341;28;20295;-54
2022/09/09 09:11:17;;;;;;;2.13;1.90;;;15.40;99.90;;;;;;5030677;28;20190;-57
2022/09/09 09:13:49;;;;;;;2.30;1.50;;;15.40;99.90;;;;;;5027941;28;20551;-53
2022/09/09 09:16:26;;;;;;;1.80;1.70;;;15.40;99.90;;;;;;5009944;28;20285;-56
2022/09/09 09:18:55;;;;;;;2.23;2.03;;;15.50;99.90;;;;;;5010867;28;20256;-54
2022/09/09 09:21:35;;;;;;;4.77;2.53;;;15.50;99.90;;;;;;5009215;28;20206;-56
2022/09/09 09:24:05;;;;;;;3.70;2.07;;;15.50;99.90;;;;;;5013553;28;20218;-53
2022/09/09 09:26:35;;;;;;;3.17;1.70;;;15.50;99.90;;;;;;5031705;28;20195;-60
2022/09/09 09:29:12;;;;;;;2.50;1.80;;;15.50;99.90;;;;;;5011347;28;20202;-55
2022/09/09 09:31:45;;;;;;;2.20;2.00;;;15.60;99.90;;;;;;5026494;28;20214;-55
2022/09/09 09:34:12;;;;;;;2.10;1.83;;;15.60;99.90;;;;;;5027584;28;20214;-55
2022/09/09 09:36:45;;;;;;;2.20;1.53;;;15.60;99.90;;;;;;5012953;28;20233;-54
2022/09/09 09:39:25;;;;;;;1.60;1.50;;;15.70;99.90;;;;;;5009492;28;20590;-55
2022/09/09 09:41:52;;;;;;;2.30;2.07;;;15.70;99.90;;;;;;5011162;28;20214;-57
2022/09/09 09:44:25;;;;;;;3.97;2.30;;;15.70;99.90;;;;;;5009826;28;20314;-56
2022/09/09 09:46:52;;;;;;;2.30;2.10;;;15.70;99.90;;;;;;5030808;28;20195;-55
2022/09/09 09:49:20;;;;;;;2.00;1.90;;;15.60;99.90;;;;;;5020330;28;20206;-55
2022/09/09 09:51:49;;;;;;;1.90;1.80;;;15.70;99.90;;;;;;5011389;28;20233;-54
2022/09/09 09:54:22;;;;;;;3.50;2.30;;;15.70;99.90;;;;;;5009471;28;20285;-55
2022/09/09 09:56:53;;;;;;;2.00;1.90;;;15.70;99.90;;;;;;5010539;28;20248;-56
2022/09/09 09:59:23;;;;;;;3.37;2.43;;;15.70;99.90;;;;;;5002094;28;20746;-55
2022/09/09 10:01:52;;;;;;;4.00;2.53;;;15.70;99.90;;;;;;5024999;28;20210;-54
2022/09/09 10:04:23;;;;;;;2.20;2.00;;;15.60;99.90;;;;;;5024069;28;20697;-54
2022/09/09 10:06:55;;;;;;;2.60;2.10;;;15.60;99.90;;;;;;5012549;28;20281;-55
2022/09/09 10:09:24;;;;;;;2.63;2.23;;;15.70;99.90;;;;;;5017973;28;20198;-54
2022/09/09 10:12:01;;;;;;;2.60;2.40;;;15.70;99.90;;;;;;5028678;28;20222;-56
2022/09/09 10:14:37;;;;;;;2.87;2.50;;;15.70;99.90;;;;;;5028287;28;20208;-53
2022/09/09 10:17:16;;;;;;;3.60;2.37;;;15.70;99.90;;;;;;5025332;28;20214;-56
2022/09/09 10:19:55;;;;;;;5.67;3.13;;;15.70;99.90;;;;;;5027146;28;20229;-55
2022/09/09 10:22:29;;;;;;;2.77;2.57;;;15.70;99.90;;;;;;5024464;28;20219;-56
2022/09/09 10:25:21;;;;;;;2.93;2.60;;;15.70;99.90;;;;;;5027998;28;20573;-56
2022/09/09 10:28:02;;;;;;;2.53;2.33;;;15.70;99.90;;;;;;5029852;28;20219;-56
2022/09/09 10:30:38;;;;;;;2.27;2.13;;;15.70;99.90;;;;;;5029286;28;20194;-55
2022/09/09 10:33:11;;;;;;;3.70;2.40;;;15.60;99.90;;;;;;5028560;28;20208;-55
2022/09/09 10:35:45;;;;;;;4.57;2.23;;;14.70;99.90;;;;;;5029174;28;20547;-54
2022/09/09 10:38:24;;;;;;;4.27;2.50;;;15.60;99.90;;;;;;5025478;28;20650;-54
2022/09/09 10:41:17;;;;;;;2.60;2.40;;;15.60;99.90;;;;;;5026939;28;20221;-53
2022/09/09 10:44:11;;;;;;;2.70;2.30;;;15.70;99.90;;;;;;5027926;28;20372;-53
2022/09/09 10:46:53;;;;;;;4.17;2.20;;;15.70;99.90;;;;;;5035577;28;20181;-52
2022/09/09 10:49:34;;;;;;;4.03;2.67;;;15.80;99.90;;;;;;5033874;28;20226;-53
2022/09/09 10:52:10;;;;;;;5.53;3.13;;;15.80;99.90;;;;;;5016239;28;20202;-50
2022/09/09 10:54:54;;;;;;;6.10;3.00;;;15.80;99.90;;;;;;5034492;28;20234;-53
2022/09/09 10:57:31;;;;;;;3.93;2.73;;;15.90;99.90;;;;;;5035589;28;20274;-55
2022/09/09 11:00:04;;;;;;;4.20;2.23;;;15.90;99.90;;;;;;5033973;28;20216;-56
2022/09/09 11:02:32;;;;;;;2.73;2.10;;;15.90;99.90;;;;;;5029763;28;20222;-55
2022/09/09 11:05:04;;;;;;;5.53;2.20;;;16.00;99.90;;;;;;5013539;28;20241;-55
2022/09/09 11:07:39;;;;;;;4.10;2.50;;;16.10;99.90;;;;;;5030742;28;20206;-54
2022/09/09 11:10:18;;;;;;;4.17;2.27;;;16.00;99.90;;;;;;5031659;28;20707;-56
2022/09/09 11:12:50;;;;;;;3.20;2.40;;;16.10;99.90;;;;;;5028949;28;21086;-55
2022/09/09 11:15:22;;;;;;;3.13;2.67;;;16.10;99.90;;;;;;5033605;28;20290;-55
2022/09/09 11:17:54;;;;;;;2.60;2.40;;;16.10;99.90;;;;;;5030563;28;20191;-56
2022/09/09 11:20:21;;;;;;;2.77;2.30;;;16.10;99.90;;;;;;5029932;28;20215;-57
2022/09/09 11:22:55;;;;;;;3.20;2.43;;;16.10;99.90;;;;;;5012944;28;20272;-56
2022/09/09 11:25:27;;;;;;;3.07;2.40;;;16.10;99.90;;;;;;5030630;28;20230;-55
2022/09/09 11:28:32;;;;;;;3.70;2.40;;;16.10;99.90;;;;;;5032573;28;20261;-55
2022/09/09 11:31:18;;;;;;;2.97;2.40;;;16.00;99.90;;;;;;5032848;28;20198;-53
2022/09/09 11:34:09;;;;;;;2.70;2.50;;;16.00;99.90;;;;;;5031392;28;20190;-56
2022/09/09 11:36:53;;;;;;;3.00;2.50;;;16.00;99.90;;;;;;5033767;28;20290;-57
2022/09/09 11:39:48;;;;;;;2.83;2.57;;;16.00;99.90;;;;;;5021900;28;20194;-56
2022/09/09 11:42:21;;;;;;;3.77;2.53;;;16.00;99.90;;;;;;5027574;28;20206;-57
2022/09/09 11:44:48;;;;;;;2.60;2.40;;;16.10;99.90;;;;;;5028371;28;20199;-52
2022/09/09 11:47:24;;;;;;;3.03;2.50;;;16.10;99.90;;;;;;5030863;28;20286;-56
2022/09/09 11:49:53;;;;;;;4.13;2.90;;;16.10;99.90;;;;;;5030918;28;20194;-58
2022/09/09 11:52:25;;;;;;;5.07;3.10;;;16.20;99.90;;;;;;5029543;28;20674;-55
2022/09/09 11:54:55;;;;;;;3.70;3.20;;;16.10;99.90;;;;;;5027635;28;20273;-56
2022/09/09 11:57:33;;;;;;;6.57;3.67;;;16.10;99.90;;;;;;5032594;28;20210;-55
2022/09/09 12:00:00;;;;;;;5.10;3.53;;;16.10;99.90;;;;;;5031341;28;20190;-53
2022/09/09 12:02:30;;;;;;;3.20;2.90;;;16.10;99.90;;;;;;5031599;28;20266;-55
2022/09/09 12:05:02;;;;;;;2.87;2.60;;;16.10;99.90;;;;;;5036755;28;20583;-55
2022/09/09 12:07:38;;;;;;;3.03;2.70;;;16.10;99.90;;;;;;5014551;28;20206;-52
2022/09/09 12:10:21;;;;;;;3.93;3.13;;;16.10;99.90;;;;;;5031632;28;20286;-55
2022/09/09 12:12:49;;;;;;;4.30;3.13;;;16.20;99.90;;;;;;5028608;28;20218;-55
2022/09/09 12:15:27;;;;;;;2.43;2.27;;;16.10;99.90;;;;;;5016059;28;20195;-55
2022/09/09 12:17:57;;;;;;;2.87;2.60;;;16.10;99.90;;;;;;5015796;28;20711;-54
2022/09/09 12:20:31;;;;;;;3.97;3.13;;;16.10;99.90;;;;;;5012718;28;20211;-55
2022/09/09 12:23:29;;;;;;;3.80;3.07;;;16.10;99.90;;;;;;5036112;28;20613;-54
2022/09/09 12:26:18;;;;;;;4.17;3.10;;;16.10;99.90;;;;;;5032245;28;20210;-53
2022/09/09 12:28:55;;;;;;;4.20;2.97;;;16.10;99.90;;;;;;5033740;28;20564;-55
2022/09/09 12:31:28;;;;;;;2.80;2.60;;;16.10;99.90;;;;;;5036844;28;20244;-52
2022/09/09 12:33:55;;;;;;;3.87;3.13;;;16.10;99.90;;;;;;5033150;28;20209;-56
2022/09/09 12:36:26;;;;;;;4.60;3.43;;;16.10;99.90;;;;;;5035593;28;20608;-52
2022/09/09 12:38:54;;;;;;;4.53;3.13;;;16.20;99.90;;;;;;5030514;28;20256;-51
2022/09/09 12:41:22;;;;;;;3.87;3.00;;;16.20;99.90;;;;;;5035376;28;20218;-54
2022/09/09 12:43:52;;;;;;;4.53;3.20;;;16.20;99.90;;;;;;5035841;28;20644;-55
2022/09/09 12:46:36;;;;;;;2.93;2.73;;;16.20;99.90;;;;;;5035600;28;20236;-58
2022/09/09 12:49:03;;;;;;;3.37;3.07;;;16.50;99.90;;;;;;5042807;28;20190;-52
2022/09/09 12:51:32;;;;;;;3.13;2.87;;;16.20;99.90;;;;;;5033706;28;20712;-55
2022/09/09 12:54:00;;;;;;;3.47;3.13;;;16.10;99.90;;;;;;5041817;28;20232;-53
2022/09/09 12:56:30;;;;;;;4.13;2.97;;;16.10;99.90;;;;;;5044464;28;20627;-54
2022/09/09 12:59:00;;;;;;;4.17;2.90;;;16.10;99.90;;;;;;5028354;28;20647;-56
2022/09/09 13:01:29;;;;;;;4.37;3.70;;;16.10;99.90;;;;;;5036288;28;20190;-57
2022/09/09 13:03:57;;;;;;;6.20;3.33;;;16.10;99.90;;;;;;5021891;28;20642;-56
2022/09/09 13:06:25;;;;;;;3.50;3.20;;;16.10;99.90;;;;;;5028921;28;20265;-54
2022/09/09 13:08:53;;;;;;;3.93;3.10;;;16.10;99.90;;;;;;5024927;28;20200;-56
2022/09/09 13:11:24;;;;;;;3.73;3.37;;;16.10;99.90;;;;;;5025586;28;20299;-56
2022/09/09 13:13:53;;;;;;;4.23;2.93;;;16.10;99.90;;;;;;5036547;28;20191;-52
2022/09/09 13:16:25;;;;;;;3.80;3.40;;;16.20;99.90;;;;;;5042643;28;20665;-56